Time;durP1;ratioP1;P1;durP2;ratioP2;P2;SDS_P1;SDS_P2;PMS_P1;PMS_P2;Temp;Humidity;BMP_temperature;BMP_pressure;BME280_temperature;BME280_humidity;BME280_pressure;Samples;Min_cycle;Max_cycle;Signal;HPM_P1;HPM_P2
2021/07/01 00:01:52;;;;;;;4.13;3.25;;;15.10;99.90;;;;;;5014264;28;20298;-75
2021/07/01 00:04:19;;;;;;;4.95;2.60;;;15.20;99.90;;;;;;5014716;28;20050;-75
2021/07/01 00:06:46;;;;;;;4.00;2.70;;;15.30;99.90;;;;;;5028956;28;20029;-75
2021/07/01 00:09:16;;;;;;;3.50;2.47;;;15.30;99.90;;;;;;5031667;28;20042;-77
2021/07/01 00:11:43;;;;;;;6.22;3.45;;;15.30;99.90;;;;;;5032847;28;20029;-76
2021/07/01 00:14:10;;;;;;;4.20;3.33;;;15.30;99.90;;;;;;5034138;28;20029;-76
2021/07/01 00:16:37;;;;;;;6.43;3.72;;;15.30;99.90;;;;;;5033196;28;20379;-76
2021/07/01 00:19:04;;;;;;;3.88;3.40;;;15.30;99.90;;;;;;5024512;28;20460;-77
2021/07/01 00:21:31;;;;;;;4.75;3.28;;;15.30;99.90;;;;;;5032386;28;20041;-76
2021/07/01 00:23:57;;;;;;;4.97;3.72;;;15.30;99.90;;;;;;5030886;28;20026;-76
2021/07/01 00:26:23;;;;;;;4.47;3.50;;;15.30;99.90;;;;;;5033033;28;20030;-76
2021/07/01 00:28:50;;;;;;;8.93;3.75;;;15.30;99.90;;;;;;5024293;28;20034;-76
2021/07/01 00:31:16;;;;;;;4.85;3.67;;;15.30;99.90;;;;;;5014237;28;20486;-76
2021/07/01 00:33:42;;;;;;;6.03;3.92;;;15.30;99.90;;;;;;5013615;28;20049;-76
2021/07/01 00:36:09;;;;;;;5.18;3.58;;;15.30;99.90;;;;;;5020056;28;20045;-76
2021/07/01 00:38:35;;;;;;;3.90;3.22;;;15.30;99.90;;;;;;5032149;28;20049;-76
2021/07/01 00:41:02;;;;;;;5.38;3.45;;;15.20;99.90;;;;;;5023958;28;20034;-76
2021/07/01 00:43:28;;;;;;;5.38;3.55;;;15.20;99.90;;;;;;5018264;28;20034;-76
2021/07/01 00:45:55;;;;;;;6.55;4.00;;;15.20;99.90;;;;;;5031320;28;20041;-76
2021/07/01 00:48:21;;;;;;;4.18;3.47;;;15.20;99.90;;;;;;5026021;28;20049;-76
2021/07/01 00:50:50;;;;;;;6.68;4.28;;;15.20;99.90;;;;;;5012528;28;20061;-76
2021/07/01 00:53:16;;;;;;;6.93;4.55;;;15.20;99.90;;;;;;5011818;28;20050;-76
2021/07/01 00:55:43;;;;;;;6.53;4.53;;;15.20;99.90;;;;;;4994785;28;20045;-76
2021/07/01 00:58:10;;;;;;;8.65;4.35;;;15.20;99.90;;;;;;5012447;28;20373;-76
2021/07/01 01:03:21;;;;;;;4.55;3.65;;;15.20;99.90;;;;;;5020165;28;20406;-76
2021/07/01 01:05:48;;;;;;;5.20;3.85;;;15.20;99.90;;;;;;5015170;28;20046;-76
2021/07/01 01:08:14;;;;;;;5.90;4.32;;;15.20;99.90;;;;;;4998170;28;20037;-76
2021/07/01 01:10:41;;;;;;;8.15;5.60;;;15.20;99.90;;;;;;5013682;28;20395;-76
2021/07/01 01:13:42;;;;;;;8.00;4.90;;;15.20;99.90;;;;;;5000617;28;20045;-76
2021/07/01 01:16:30;;;;;;;7.38;5.15;;;15.20;99.90;;;;;;5012246;28;20038;-76
2021/07/01 01:18:58;;;;;;;6.65;4.78;;;15.20;99.90;;;;;;5023418;28;20037;-76
2021/07/01 01:21:27;;;;;;;5.28;4.28;;;15.20;99.90;;;;;;5014199;28;20041;-76
2021/07/01 01:24:00;;;;;;;6.55;4.38;;;15.20;99.90;;;;;;4998539;28;20487;-76
2021/07/01 01:26:27;;;;;;;7.70;4.50;;;15.10;99.90;;;;;;4995705;28;20041;-76
2021/07/01 01:28:54;;;;;;;7.30;4.80;;;15.20;99.90;;;;;;5024363;28;20042;-76
2021/07/01 01:31:21;;;;;;;6.20;4.82;;;15.20;99.90;;;;;;5029176;28;20086;-76
2021/07/01 01:33:52;;;;;;;9.82;5.95;;;15.20;99.90;;;;;;5019318;28;20046;-76
2021/07/01 01:36:20;;;;;;;6.50;4.57;;;15.20;99.90;;;;;;5006599;28;20065;-76
2021/07/01 01:38:49;;;;;;;5.68;5.05;;;15.20;99.90;;;;;;5016664;28;20038;-76
2021/07/01 01:41:31;;;;;;;4.78;4.00;;;15.20;99.90;;;;;;5021071;28;20038;-77
2021/07/01 01:43:58;;;;;;;4.57;3.78;;;15.20;99.90;;;;;;5016798;28;20038;-76
2021/07/01 01:46:36;;;;;;;5.90;4.68;;;15.30;99.90;;;;;;5028147;28;20050;-77
2021/07/01 01:49:04;;;;;;;9.15;4.63;;;15.30;99.90;;;;;;5041214;28;20034;-77
2021/07/01 01:51:32;;;;;;;5.82;4.70;;;15.30;99.90;;;;;;5028420;28;20500;-77
2021/07/01 01:54:00;;;;;;;6.07;5.10;;;15.20;99.90;;;;;;5035985;28;20045;-76
2021/07/01 01:56:36;;;;;;;7.45;5.13;;;15.20;99.90;;;;;;5004076;28;20045;-75
2021/07/01 01:59:06;;;;;;;7.45;5.30;;;15.20;99.90;;;;;;4998180;28;20046;-76
2021/07/01 02:01:51;;;;;;;7.13;5.32;;;15.20;99.90;;;;;;5016497;28;20044;-75
2021/07/01 02:04:28;;;;;;;7.97;5.20;;;15.30;99.90;;;;;;5015496;28;20048;-76
2021/07/01 02:06:55;;;;;;;7.90;4.90;;;15.20;99.90;;;;;;5013969;28;20038;-76
2021/07/01 02:09:23;;;;;;;8.50;6.43;;;15.30;99.90;;;;;;5016620;28;20045;-76
2021/07/01 02:11:53;;;;;;;6.70;6.00;;;15.20;99.90;;;;;;5016624;28;20060;-77
2021/07/01 02:14:21;;;;;;;7.82;5.53;;;15.30;99.90;;;;;;5014682;28;20423;-77
2021/07/01 02:17:04;;;;;;;8.20;5.47;;;15.30;99.90;;;;;;5005546;28;20053;-75
2021/07/01 02:19:31;;;;;;;7.93;5.47;;;15.20;99.90;;;;;;4998103;28;20034;-75
2021/07/01 02:21:57;;;;;;;8.20;6.00;;;15.30;99.90;;;;;;5018362;28;20041;-75
2021/07/01 02:24:24;;;;;;;8.63;6.20;;;15.20;99.90;;;;;;5013898;28;20037;-76
2021/07/01 02:26:51;;;;;;;7.32;5.68;;;15.30;99.90;;;;;;5019426;28;20041;-75
2021/07/01 02:29:18;;;;;;;10.48;7.13;;;15.20;99.90;;;;;;5032518;28;20041;-76
2021/07/01 02:32:13;;;;;;;8.02;6.45;;;15.30;99.90;;;;;;5024497;28;20034;-76
2021/07/01 02:34:41;;;;;;;7.30;5.70;;;15.30;99.90;;;;;;5002527;28;20037;-76
2021/07/01 02:37:23;;;;;;;7.28;5.68;;;15.30;99.90;;;;;;5025059;28;20046;-76
2021/07/01 02:40:00;;;;;;;7.15;5.45;;;15.30;99.90;;;;;;5014670;28;20419;-77
2021/07/01 02:42:32;;;;;;;9.35;6.63;;;15.30;99.90;;;;;;5014072;28;20049;-77
2021/07/01 02:44:59;;;;;;;7.90;6.28;;;15.20;99.90;;;;;;5001318;28;20053;-77
2021/07/01 02:47:51;;;;;;;8.73;5.68;;;15.20;99.90;;;;;;5001053;28;20058;-77
2021/07/01 02:50:17;;;;;;;9.25;6.28;;;15.20;99.90;;;;;;5014903;28;20053;-77
2021/07/01 02:52:45;;;;;;;7.28;6.13;;;15.30;99.90;;;;;;5014723;28;20054;-76
2021/07/01 02:55:12;;;;;;;7.38;5.72;;;15.30;99.90;;;;;;5002983;28;20507;-77
2021/07/01 02:57:38;;;;;;;7.63;5.95;;;15.30;99.90;;;;;;5017698;28;20041;-76
2021/07/01 03:00:13;;;;;;;8.88;6.05;;;15.20;99.90;;;;;;4999394;28;20050;-75
2021/07/01 03:02:44;;;;;;;6.05;4.82;;;15.30;99.90;;;;;;4997721;28;20052;-76
2021/07/01 03:05:33;;;;;;;5.63;4.93;;;15.20;99.90;;;;;;5010049;28;20042;-75
2021/07/01 03:07:59;;;;;;;9.30;5.68;;;15.30;99.90;;;;;;5015999;28;20316;-74
2021/07/01 03:10:27;;;;;;;11.20;6.20;;;15.30;99.90;;;;;;5025702;28;20048;-75
2021/07/01 03:13:01;;;;;;;10.10;6.50;;;15.30;99.90;;;;;;5027673;28;20046;-76
2021/07/01 03:15:28;;;;;;;8.85;6.28;;;15.30;99.90;;;;;;5015518;28;20050;-75
2021/07/01 03:17:55;;;;;;;10.38;6.60;;;15.30;99.90;;;;;;4997681;28;20042;-76
2021/07/01 03:20:33;;;;;;;7.20;6.20;;;15.30;99.90;;;;;;5021620;28;20045;-75
2021/07/01 03:23:25;;;;;;;10.65;8.00;;;15.20;99.90;;;;;;5012970;28;20472;-76
2021/07/01 03:25:52;;;;;;;9.32;7.70;;;15.30;99.90;;;;;;5014927;28;20037;-75
2021/07/01 03:28:19;;;;;;;9.48;6.22;;;15.30;99.90;;;;;;5020451;28;20133;-73
2021/07/01 03:30:45;;;;;;;10.88;7.47;;;15.20;99.90;;;;;;5024400;28;20049;-75
2021/07/01 03:33:11;;;;;;;7.50;6.40;;;15.30;99.90;;;;;;5028707;28;20068;-74
2021/07/01 03:35:39;;;;;;;8.45;6.03;;;15.20;99.90;;;;;;5013510;28;20041;-74
2021/07/01 03:38:40;;;;;;;11.85;6.95;;;15.20;99.90;;;;;;4992442;28;20448;-75
2021/07/01 03:41:23;;;;;;;10.40;8.20;;;15.20;99.90;;;;;;5023341;28;20058;-76
2021/07/01 03:43:52;;;;;;;10.18;7.00;;;15.20;99.90;;;;;;5014309;28;20049;-76
2021/07/01 03:46:19;;;;;;;9.57;7.25;;;15.20;99.90;;;;;;4996391;28;20058;-76
2021/07/01 03:48:46;;;;;;;11.00;7.45;;;15.20;99.90;;;;;;5012990;28;20049;-76
2021/07/01 03:51:31;;;;;;;9.25;7.38;;;15.20;99.90;;;;;;5020521;28;20061;-76
2021/07/01 03:54:07;;;;;;;9.38;6.88;;;15.20;99.90;;;;;;5011668;28;20045;-76
2021/07/01 03:56:42;;;;;;;9.80;7.43;;;15.10;99.90;;;;;;5013276;28;20049;-76
2021/07/01 03:59:15;;;;;;;10.48;6.57;;;15.10;99.90;;;;;;5014901;28;20026;-75
2021/07/01 04:02:00;;;;;;;12.45;6.97;;;15.10;99.90;;;;;;5021461;28;20053;-76
2021/07/01 04:04:28;;;;;;;11.10;7.00;;;15.10;99.90;;;;;;4996819;28;20049;-76
2021/07/01 04:06:54;;;;;;;8.00;6.43;;;15.10;99.90;;;;;;5012360;28;20038;-76
2021/07/01 04:09:21;;;;;;;10.90;6.50;;;15.20;99.90;;;;;;4999122;28;20400;-75
2021/07/01 04:12:07;;;;;;;7.50;6.25;;;15.10;99.90;;;;;;5013244;28;20038;-75
2021/07/01 04:14:44;;;;;;;7.75;5.45;;;15.10;99.90;;;;;;5011339;28;20411;-76
2021/07/01 04:17:29;;;;;;;6.72;5.45;;;15.10;99.90;;;;;;5013004;28;20080;-75
2021/07/01 04:20:14;;;;;;;9.15;5.28;;;15.20;99.90;;;;;;4998994;28;20053;-75
2021/07/01 04:22:58;;;;;;;6.82;5.78;;;15.20;99.90;;;;;;5009983;28;20045;-75
2021/07/01 04:25:50;;;;;;;9.50;6.10;;;15.20;99.90;;;;;;5012728;28;20042;-75
2021/07/01 04:28:16;;;;;;;7.15;5.97;;;15.20;99.90;;;;;;5012181;28;20048;-75
2021/07/01 04:30:43;;;;;;;8.43;5.60;;;15.20;99.90;;;;;;5011888;28;20057;-75
2021/07/01 04:33:35;;;;;;;6.93;4.68;;;15.20;99.90;;;;;;5010677;28;20042;-75
2021/07/01 04:36:01;;;;;;;6.50;4.65;;;15.20;99.90;;;;;;5012740;28;20065;-75
2021/07/01 04:38:27;;;;;;;5.68;4.05;;;15.20;99.90;;;;;;4979276;28;20034;-75
2021/07/01 04:40:55;;;;;;;6.70;3.80;;;15.30;99.90;;;;;;4994658;28;20548;-76
2021/07/01 04:43:22;;;;;;;5.45;4.07;;;15.30;99.90;;;;;;5012200;28;20046;-76
2021/07/01 04:45:49;;;;;;;5.88;4.57;;;15.30;99.90;;;;;;4995005;28;20041;-76
2021/07/01 04:48:16;;;;;;;7.85;4.50;;;15.30;99.90;;;;;;5014142;28;20053;-74
2021/07/01 04:50:43;;;;;;;9.57;5.30;;;15.30;99.90;;;;;;4995719;28;20037;-74
2021/07/01 04:53:45;;;;;;;9.77;4.55;;;15.30;99.90;;;;;;4999333;28;20042;-76
2021/07/01 04:56:43;;;;;;;7.60;5.22;;;15.30;99.90;;;;;;5019116;28;20109;-76
2021/07/01 04:59:17;;;;;;;6.70;5.35;;;15.40;99.90;;;;;;5030550;28;20044;-75
2021/07/01 05:02:09;;;;;;;8.05;5.82;;;15.40;99.90;;;;;;5019460;28;20042;-75
2021/07/01 05:04:35;;;;;;;9.60;5.07;;;15.40;99.90;;;;;;5030626;28;20080;-76
2021/07/01 05:07:02;;;;;;;8.13;5.50;;;15.40;99.90;;;;;;5020156;28;20065;-76
2021/07/01 05:09:28;;;;;;;8.10;4.50;;;15.30;99.90;;;;;;5039108;28;20056;-75
2021/07/01 05:12:01;;;;;;;7.07;4.78;;;15.40;99.90;;;;;;5018030;28;20045;-75
2021/07/01 05:14:29;;;;;;;6.28;5.00;;;15.40;99.90;;;;;;5010911;28;20395;-76
2021/07/01 05:16:56;;;;;;;6.03;4.38;;;15.30;99.90;;;;;;4994570;28;20050;-76
2021/07/01 05:19:22;;;;;;;7.07;5.05;;;15.40;99.90;;;;;;5004141;28;20046;-76
2021/07/01 05:21:55;;;;;;;6.82;5.13;;;15.40;99.90;;;;;;5030156;28;20049;-76
2021/07/01 05:24:39;;;;;;;8.20;4.68;;;15.40;99.90;;;;;;5032692;28;20044;-75
2021/07/01 05:27:24;;;;;;;5.00;3.75;;;15.50;99.90;;;;;;5038258;28;20049;-75
2021/07/01 05:30:09;;;;;;;4.88;3.65;;;15.50;99.90;;;;;;5031671;28;20387;-76
2021/07/01 05:32:53;;;;;;;4.57;3.70;;;15.50;99.90;;;;;;5021319;28;20056;-75
2021/07/01 05:35:25;;;;;;;6.70;4.30;;;15.50;99.90;;;;;;5013012;28;20050;-75
2021/07/01 05:37:54;;;;;;;5.70;3.42;;;15.50;99.90;;;;;;4994659;28;20053;-75
2021/07/01 05:40:22;;;;;;;4.07;3.03;;;15.50;99.90;;;;;;5039528;28;20050;-76
2021/07/01 05:42:49;;;;;;;4.97;3.03;;;15.50;99.90;;;;;;5010015;28;20141;-75
2021/07/01 05:45:15;;;;;;;4.80;3.38;;;15.60;99.90;;;;;;4993829;28;20513;-75
2021/07/01 05:47:42;;;;;;;4.18;2.92;;;15.60;99.90;;;;;;5029246;28;20053;-75
2021/07/01 05:50:10;;;;;;;5.35;3.58;;;15.60;99.90;;;;;;5031604;28;20056;-75
2021/07/01 05:52:39;;;;;;;3.40;2.65;;;15.60;99.90;;;;;;5031412;28;20029;-76
2021/07/01 05:55:06;;;;;;;5.25;3.00;;;15.60;99.90;;;;;;5031075;28;20045;-76
2021/07/01 05:57:32;;;;;;;4.13;3.40;;;15.60;99.90;;;;;;5030728;28;20041;-75
2021/07/01 05:59:59;;;;;;;4.40;2.53;;;15.60;99.90;;;;;;5025620;28;20455;-75
2021/07/01 06:02:25;;;;;;;9.05;3.50;;;15.60;99.90;;;;;;5018441;28;20467;-76
2021/07/01 06:04:52;;;;;;;6.07;3.50;;;15.70;99.90;;;;;;5032165;28;20045;-75
2021/07/01 06:07:41;;;;;;;5.10;3.53;;;15.70;99.90;;;;;;5027297;28;20033;-76
2021/07/01 06:10:10;;;;;;;5.53;3.63;;;15.70;99.90;;;;;;5012922;28;20378;-76
2021/07/01 06:12:37;;;;;;;6.30;4.45;;;15.70;99.90;;;;;;5013314;28;20114;-76
2021/07/01 06:15:04;;;;;;;5.45;4.07;;;15.60;99.90;;;;;;5014902;28;20053;-76
2021/07/01 06:17:34;;;;;;;5.88;4.22;;;15.70;99.90;;;;;;5029020;28;20034;-76
2021/07/01 06:20:09;;;;;;;5.35;4.00;;;15.70;99.90;;;;;;5020335;28;20053;-76
2021/07/01 06:22:36;;;;;;;4.80;3.28;;;15.70;99.90;;;;;;5043413;28;20363;-75
2021/07/01 06:25:04;;;;;;;5.70;4.03;;;15.70;99.90;;;;;;5031940;28;20037;-75
2021/07/01 06:30:14;;;;;;;4.57;3.00;;;15.70;99.90;;;;;;5020828;28;20435;-75
2021/07/01 06:32:46;;;;;;;7.35;3.50;;;15.70;99.90;;;;;;5035879;28;20025;-75
2021/07/01 06:35:17;;;;;;;7.93;3.83;;;15.80;99.90;;;;;;5031664;28;20467;-75
2021/07/01 06:37:45;;;;;;;5.43;3.30;;;15.80;99.90;;;;;;5015719;28;20030;-76
2021/07/01 06:40:32;;;;;;;4.47;3.20;;;15.80;99.90;;;;;;5023152;28;20383;-76
2021/07/01 06:43:23;;;;;;;4.45;3.20;;;15.70;99.90;;;;;;5041753;28;20052;-77
2021/07/01 06:46:08;;;;;;;4.30;2.83;;;15.70;99.90;;;;;;5029147;28;20077;-76
2021/07/01 06:48:54;;;;;;;3.72;2.70;;;15.80;99.90;;;;;;5026389;28;20053;-76
2021/07/01 06:51:40;;;;;;;4.22;3.50;;;15.70;99.90;;;;;;5024875;28;20040;-78
2021/07/01 06:54:36;;;;;;;5.63;3.60;;;15.80;99.90;;;;;;5012904;28;20045;-77
2021/07/01 06:57:21;;;;;;;6.78;3.63;;;15.80;99.90;;;;;;5022473;28;20053;-76
2021/07/01 06:59:48;;;;;;;3.97;3.28;;;15.70;99.90;;;;;;5038998;28;20029;-76
2021/07/01 07:02:15;;;;;;;3.80;2.53;;;15.70;99.90;;;;;;5041626;28;20339;-76
2021/07/01 07:04:42;;;;;;;3.97;2.70;;;15.70;99.90;;;;;;5024225;28;20053;-76
2021/07/01 07:07:08;;;;;;;5.15;3.13;;;15.70;99.90;;;;;;5022460;28;20040;-76
2021/07/01 07:09:37;;;;;;;3.97;2.45;;;15.70;99.90;;;;;;5028336;28;20030;-77
2021/07/01 07:12:03;;;;;;;5.00;2.72;;;15.70;99.90;;;;;;5033765;28;20033;-75
2021/07/01 07:14:29;;;;;;;4.25;2.75;;;15.60;99.90;;;;;;5017072;28;20415;-76
2021/07/01 07:16:58;;;;;;;7.90;3.00;;;15.70;99.90;;;;;;5024057;28;20387;-76
2021/07/01 07:19:27;;;;;;;4.70;3.00;;;15.70;99.90;;;;;;5014843;28;20052;-76
2021/07/01 07:21:56;;;;;;;6.00;2.38;;;15.80;99.90;;;;;;5030102;28;20044;-76
2021/07/01 07:24:28;;;;;;;4.47;2.58;;;15.80;99.90;;;;;;5033400;28;20053;-76
2021/07/01 07:26:56;;;;;;;5.63;2.42;;;15.80;99.90;;;;;;5033567;28;20041;-76
2021/07/01 07:29:24;;;;;;;5.03;2.38;;;15.80;99.90;;;;;;5033761;28;20478;-76
2021/07/01 07:31:50;;;;;;;3.88;2.60;;;15.90;99.90;;;;;;5034145;28;20038;-76
2021/07/01 07:34:17;;;;;;;2.95;1.60;;;16.00;99.90;;;;;;5014676;28;20061;-76
2021/07/01 07:36:45;;;;;;;3.38;2.00;;;16.00;99.90;;;;;;5014536;28;20049;-75
2021/07/01 07:39:11;;;;;;;2.85;1.83;;;16.00;99.90;;;;;;5031726;28;20510;-75
2021/07/01 07:41:37;;;;;;;3.10;1.65;;;16.00;99.90;;;;;;5017916;28;20034;-75
2021/07/01 07:44:05;;;;;;;4.15;1.88;;;16.10;99.90;;;;;;5034509;28;20033;-75
2021/07/01 07:46:32;;;;;;;3.05;1.50;;;16.20;99.90;;;;;;4997669;28;20042;-75
2021/07/01 07:48:58;;;;;;;4.22;1.42;;;16.40;99.90;;;;;;5031554;28;20037;-75
2021/07/01 07:51:29;;;;;;;4.55;1.80;;;16.50;99.90;;;;;;5015705;28;20034;-75
2021/07/01 07:54:02;;;;;;;4.78;1.70;;;16.50;99.90;;;;;;5021659;28;20057;-76
2021/07/01 07:56:37;;;;;;;2.95;1.70;;;16.40;99.90;;;;;;5033488;28;20033;-75
2021/07/01 07:59:10;;;;;;;3.05;1.10;;;16.40;99.90;;;;;;5022902;28;20066;-76
2021/07/01 08:01:38;;;;;;;3.17;1.50;;;16.50;99.90;;;;;;5029465;28;20037;-75
2021/07/01 08:04:07;;;;;;;2.25;1.80;;;16.60;99.90;;;;;;5023492;28;20061;-76
2021/07/01 08:06:34;;;;;;;4.32;1.40;;;16.50;99.90;;;;;;5023760;28;20499;-77
2021/07/01 08:09:04;;;;;;;3.92;1.70;;;16.70;99.90;;;;;;5014272;28;20034;-77
2021/07/01 08:11:34;;;;;;;3.50;1.70;;;16.40;99.90;;;;;;5013912;28;20053;-76
2021/07/01 08:14:01;;;;;;;3.05;1.33;;;16.30;99.90;;;;;;5018036;28;20050;-76
2021/07/01 08:16:27;;;;;;;2.58;1.50;;;16.50;99.90;;;;;;5033228;28;20043;-76
2021/07/01 08:18:55;;;;;;;2.03;1.40;;;16.60;99.90;;;;;;5017246;28;20356;-76
2021/07/01 08:21:21;;;;;;;2.80;1.90;;;16.80;99.90;;;;;;5028478;28;20379;-77
2021/07/01 08:23:48;;;;;;;1.80;1.30;;;17.00;99.90;;;;;;5015564;28;20033;-77
2021/07/01 08:26:15;;;;;;;3.88;1.50;;;17.10;99.90;;;;;;5018058;28;20463;-76
2021/07/01 08:28:41;;;;;;;2.30;1.50;;;16.90;99.90;;;;;;5015953;28;20395;-77
2021/07/01 08:31:18;;;;;;;1.95;1.40;;;16.90;99.90;;;;;;5017418;28;20025;-76
2021/07/01 08:33:48;;;;;;;3.67;1.52;;;16.70;99.90;;;;;;5015802;28;20511;-77
2021/07/01 08:36:16;;;;;;;;;;;16.70;99.90;;;;;;5015383;28;20037;-76
2021/07/01 08:38:43;;;;;;;1.48;0.98;;;16.60;99.90;;;;;;4995342;28;19921;-76
2021/07/01 08:41:15;;;;;;;2.47;1.52;;;16.70;99.90;;;;;;5014368;28;20382;-75
2021/07/01 08:43:51;;;;;;;1.58;1.15;;;16.70;99.90;;;;;;5027026;28;20026;-75
2021/07/01 08:46:22;;;;;;;2.60;1.42;;;16.70;99.90;;;;;;5021928;28;20057;-76
2021/07/01 08:49:04;;;;;;;1.80;0.80;;;16.70;99.90;;;;;;5022420;28;20040;-76
2021/07/01 08:51:33;;;;;;;2.15;1.02;;;16.50;99.90;;;;;;5021296;28;20034;-77
2021/07/01 08:54:39;;;;;;;2.65;0.75;;;16.70;99.90;;;;;;5023429;28;20359;-76
2021/07/01 08:57:13;;;;;;;2.90;1.08;;;16.80;99.90;;;;;;5013643;28;20041;-75
2021/07/01 08:59:43;;;;;;;1.70;1.00;;;16.80;99.90;;;;;;5029622;28;20411;-76
2021/07/01 09:02:11;;;;;;;3.58;0.70;;;16.90;99.90;;;;;;5010860;28;20065;-75
2021/07/01 09:04:48;;;;;;;1.10;0.68;;;16.80;99.90;;;;;;5013408;28;20045;-77
2021/07/01 09:07:20;;;;;;;1.45;0.82;;;16.80;99.90;;;;;;5024642;28;20052;-75
2021/07/01 09:09:55;;;;;;;1.33;0.80;;;17.10;99.90;;;;;;5014032;28;20033;-76
2021/07/01 09:12:26;;;;;;;1.85;1.23;;;17.30;99.90;;;;;;5023846;28;20374;-76
2021/07/01 09:15:01;;;;;;;1.55;0.93;;;17.10;99.90;;;;;;5024761;28;20044;-75
2021/07/01 09:17:33;;;;;;;2.92;0.80;;;17.00;99.90;;;;;;5028369;28;20049;-75
2021/07/01 09:20:01;;;;;;;1.10;0.60;;;17.20;99.90;;;;;;5011993;28;20479;-75
2021/07/01 09:22:28;;;;;;;2.30;1.15;;;17.50;99.90;;;;;;5032151;28;20025;-75
2021/07/01 09:24:56;;;;;;;4.15;1.30;;;17.40;99.90;;;;;;5013685;28;20395;-75
2021/07/01 09:27:25;;;;;;;3.92;1.98;;;17.70;99.90;;;;;;5014878;28;20034;-76
2021/07/01 09:29:53;;;;;;;4.25;1.58;;;18.00;99.90;;;;;;5014124;28;20552;-76
2021/07/01 09:32:21;;;;;;;3.00;1.65;;;18.00;99.90;;;;;;5014894;28;20056;-75
2021/07/01 09:34:49;;;;;;;3.15;1.50;;;17.70;99.90;;;;;;5014071;28;20046;-77
2021/07/01 09:37:16;;;;;;;1.73;0.90;;;17.40;99.90;;;;;;5014391;28;20030;-77
2021/07/01 09:39:43;;;;;;;1.63;0.90;;;17.50;99.90;;;;;;5028089;28;20391;-77
2021/07/01 09:42:10;;;;;;;3.13;1.60;;;18.00;99.90;;;;;;5025254;28;20037;-78
2021/07/01 09:44:38;;;;;;;3.75;1.80;;;17.80;99.90;;;;;;5019236;28;20037;-77
2021/07/01 09:47:09;;;;;;;4.32;1.35;;;17.60;99.90;;;;;;5021380;28;20395;-77
2021/07/01 09:49:40;;;;;;;;;;;17.90;99.90;;;;;;5025155;28;20060;-77
2021/07/01 09:52:09;;;;;;;4.05;1.98;;;18.00;99.90;;;;;;5015760;28;19909;-77
2021/07/01 09:54:38;;;;;;;2.35;1.42;;;18.10;99.90;;;;;;5033378;28;20037;-75
2021/07/01 09:57:13;;;;;;;2.05;1.50;;;18.30;99.90;;;;;;5024702;28;20060;-76
2021/07/01 09:59:47;;;;;;;4.15;2.28;;;18.40;99.90;;;;;;5036579;28;20044;-76
2021/07/01 10:02:21;;;;;;;3.28;2.03;;;18.20;99.90;;;;;;5026966;28;20076;-77
2021/07/01 10:04:49;;;;;;;3.13;1.40;;;18.00;99.90;;;;;;5036369;28;20034;-77
2021/07/01 10:07:23;;;;;;;2.38;1.33;;;17.70;99.90;;;;;;5037327;28;20387;-77
2021/07/01 10:09:55;;;;;;;2.72;1.30;;;17.60;99.90;;;;;;5021343;28;20044;-76
2021/07/01 10:12:31;;;;;;;2.10;1.00;;;17.40;99.90;;;;;;5033988;28;20041;-76
2021/07/01 10:15:01;;;;;;;1.67;0.98;;;17.40;99.90;;;;;;5010942;28;20121;-75
2021/07/01 10:17:29;;;;;;;2.03;1.17;;;17.70;99.90;;;;;;5029952;28;20046;-76
2021/07/01 10:20:30;;;;;;;2.58;1.15;;;17.90;99.90;;;;;;5030615;28;20033;-75
2021/07/01 10:22:58;;;;;;;2.55;0.98;;;18.00;99.90;;;;;;5035831;28;20025;-76
2021/07/01 10:25:33;;;;;;;1.88;1.00;;;17.80;99.90;;;;;;5035872;28;20049;-76
2021/07/01 10:28:14;;;;;;;2.42;0.57;;;17.60;99.90;;;;;;5016112;28;20077;-78
2021/07/01 10:30:42;;;;;;;2.28;0.40;;;17.80;99.90;;;;;;5016536;28;20034;-76
2021/07/01 10:33:26;;;;;;;1.10;0.52;;;17.70;99.90;;;;;;5017362;28;20038;-76
2021/07/01 10:35:56;;;;;;;1.33;0.57;;;17.70;99.90;;;;;;5028005;28;20033;-77
2021/07/01 10:38:23;;;;;;;0.82;0.50;;;18.00;99.90;;;;;;5020163;28;20312;-76
2021/07/01 10:40:52;;;;;;;1.90;0.60;;;18.20;99.80;;;;;;5030174;28;20030;-76
2021/07/01 10:43:19;;;;;;;2.53;0.90;;;17.70;99.90;;;;;;5035413;28;20459;-77
2021/07/01 10:45:56;;;;;;;1.48;0.77;;;17.30;99.90;;;;;;5016108;28;20044;-76
2021/07/01 10:48:24;;;;;;;1.48;0.93;;;17.20;99.90;;;;;;5020654;28;20487;-77
2021/07/01 10:50:53;;;;;;;1.55;0.90;;;17.30;99.90;;;;;;5038334;28;20029;-76
2021/07/01 10:53:31;;;;;;;2.83;0.93;;;17.30;99.90;;;;;;5047222;28;20028;-76
2021/07/01 10:56:23;;;;;;;2.13;0.75;;;17.20;99.90;;;;;;5025880;28;20038;-77
2021/07/01 10:58:55;;;;;;;2.42;0.90;;;17.10;99.90;;;;;;5027161;28;20041;-77
2021/07/01 11:01:26;;;;;;;1.23;0.70;;;16.90;99.90;;;;;;5027913;28;20034;-77
2021/07/01 11:04:08;;;;;;;2.03;0.98;;;16.80;99.90;;;;;;5030244;28;20029;-78
2021/07/01 11:06:35;;;;;;;1.25;0.40;;;16.30;99.90;;;;;;5016004;28;20361;-79
2021/07/01 11:09:02;;;;;;;1.50;0.50;;;15.70;99.90;;;;;;5019310;28;20029;-79
2021/07/01 11:11:33;;;;;;;2.85;0.60;;;15.50;99.90;;;;;;5034083;28;20030;-78
2021/07/01 11:14:12;;;;;;;1.23;0.60;;;15.40;99.90;;;;;;5015446;28;20038;-78
2021/07/01 11:16:41;;;;;;;1.75;0.63;;;15.40;99.90;;;;;;5021348;28;20045;-77
2021/07/01 11:19:09;;;;;;;0.85;0.40;;;15.50;99.90;;;;;;5032041;28;20053;-78
2021/07/01 11:21:37;;;;;;;0.82;0.63;;;15.50;99.90;;;;;;5027305;28;20026;-78
2021/07/01 11:24:13;;;;;;;1.17;0.50;;;15.60;99.90;;;;;;5011661;28;20041;-78
2021/07/01 11:26:41;;;;;;;1.23;0.50;;;15.80;99.90;;;;;;5015821;28;20029;-78
2021/07/01 11:29:08;;;;;;;1.20;0.38;;;15.90;99.90;;;;;;5013764;28;20042;-78
2021/07/01 11:31:45;;;;;;;2.45;0.70;;;16.20;99.90;;;;;;5033887;28;20034;-78
2021/07/01 11:34:14;;;;;;;1.83;0.52;;;16.40;99.90;;;;;;5034231;28;20034;-78
2021/07/01 11:36:46;;;;;;;1.70;0.90;;;16.80;99.90;;;;;;5031600;28;20037;-78
2021/07/01 11:39:14;;;;;;;2.15;0.70;;;17.10;99.90;;;;;;5015243;28;20041;-77
2021/07/01 11:41:43;;;;;;;1.02;0.60;;;17.50;99.90;;;;;;5027673;28;20053;-77
2021/07/01 11:44:12;;;;;;;0.77;0.32;;;17.20;99.90;;;;;;5028708;28;20474;-77
2021/07/01 11:46:40;;;;;;;1.25;0.40;;;17.10;99.90;;;;;;5015179;28;20045;-77
2021/07/01 11:49:08;;;;;;;1.13;0.45;;;17.10;99.90;;;;;;5017238;28;20488;-76
2021/07/01 11:51:35;;;;;;;0.98;0.55;;;17.20;99.90;;;;;;5026396;28;20021;-77
2021/07/01 11:54:03;;;;;;;2.17;0.63;;;17.10;99.90;;;;;;5031416;28;20038;-78
2021/07/01 11:56:30;;;;;;;1.27;0.80;;;17.00;99.90;;;;;;5034032;28;20044;-78
2021/07/01 11:58:56;;;;;;;0.98;0.68;;;16.90;99.90;;;;;;5015580;28;20048;-77
2021/07/01 12:01:22;;;;;;;1.13;0.60;;;16.90;99.90;;;;;;5014199;28;20049;-77
2021/07/01 12:03:50;;;;;;;1.40;0.68;;;17.30;99.90;;;;;;5027896;28;20036;-76
2021/07/01 12:06:31;;;;;;;0.90;0.50;;;17.50;99.90;;;;;;5014112;28;20033;-75
2021/07/01 12:08:58;;;;;;;2.20;0.80;;;17.80;99.90;;;;;;5031732;28;20047;-76
2021/07/01 12:11:24;;;;;;;3.00;0.75;;;18.00;99.90;;;;;;5030088;28;20053;-76
2021/07/01 12:13:50;;;;;;;1.60;0.98;;;18.00;99.90;;;;;;5024180;28;20030;-76
2021/07/01 12:16:18;;;;;;;2.15;0.50;;;17.90;99.90;;;;;;4996467;28;20050;-75
2021/07/01 12:18:44;;;;;;;1.70;0.60;;;18.00;99.90;;;;;;4996103;28;20053;-76
2021/07/01 12:21:15;;;;;;;2.33;1.55;;;18.10;99.90;;;;;;5029619;28;20125;-76
2021/07/01 12:23:51;;;;;;;4.00;1.40;;;18.20;99.90;;;;;;5032965;28;20033;-76
2021/07/01 12:26:42;;;;;;;2.97;1.48;;;18.00;99.90;;;;;;5020907;28;20501;-76
2021/07/01 12:29:16;;;;;;;4.97;1.88;;;18.10;99.90;;;;;;5035224;28;20036;-76
2021/07/01 12:31:43;;;;;;;4.43;1.88;;;18.70;99.90;;;;;;5023139;28;20042;-76
2021/07/01 12:34:11;;;;;;;1.98;1.48;;;19.10;99.90;;;;;;5027836;28;20049;-76
2021/07/01 12:36:41;;;;;;;2.92;1.65;;;19.20;99.90;;;;;;5016595;28;20368;-76
2021/07/01 12:39:12;;;;;;;3.10;2.13;;;19.10;99.90;;;;;;5031829;28;20037;-76
2021/07/01 12:41:38;;;;;;;;;;;19.00;99.90;;;;;;5017401;28;20029;-76
2021/07/01 12:44:08;;;;;;;2.83;1.77;;;18.70;99.90;;;;;;5032721;28;19912;-76
2021/07/01 12:46:46;;;;;;;;;;;18.80;99.90;;;;;;5033318;28;20066;-75
2021/07/01 12:49:16;;;;;;;3.42;1.65;;;18.80;99.90;;;;;;5032934;28;19909;-76
2021/07/01 12:51:46;;;;;;;4.53;1.42;;;18.80;99.90;;;;;;5025415;28;20030;-76
2021/07/01 12:54:16;;;;;;;3.97;2.08;;;18.70;99.90;;;;;;5014226;28;20041;-76
2021/07/01 12:56:43;;;;;;;2.65;1.70;;;18.50;99.90;;;;;;5027259;28;20048;-77
2021/07/01 12:59:09;;;;;;;4.43;1.92;;;18.30;99.90;;;;;;5019872;28;20029;-77
2021/07/01 13:01:36;;;;;;;4.07;1.50;;;18.50;99.90;;;;;;4996171;28;20046;-75
2021/07/01 13:04:02;;;;;;;3.75;1.70;;;18.70;99.90;;;;;;5023299;28;20482;-76
2021/07/01 13:06:28;;;;;;;2.40;1.45;;;18.90;99.90;;;;;;5032438;28;20121;-75
2021/07/01 13:08:54;;;;;;;2.95;1.60;;;18.60;99.90;;;;;;5029209;28;20037;-75
2021/07/01 13:11:21;;;;;;;2.65;1.67;;;18.30;99.90;;;;;;5014415;28;20040;-78
2021/07/01 13:13:59;;;;;;;2.20;1.50;;;17.80;99.90;;;;;;5026861;28;20041;-77
2021/07/01 13:16:25;;;;;;;2.67;1.63;;;17.50;99.90;;;;;;5014939;28;20069;-75